Time;durP1;ratioP1;P1;durP2;ratioP2;P2;SDS_P1;SDS_P2;PMS_P1;PMS_P2;Temp;Humidity;BMP_temperature;BMP_pressure;BME280_temperature;BME280_humidity;BME280_pressure;Samples;Min_cycle;Max_cycle;Signal;HPM_P1;HPM_P2
2022/01/11 00:01:18;;;;;;;;;23.25;21.00;;;;;21.30;44.23;102057.84;5060510;28;45415;-78
2022/01/11 00:03:44;;;;;;;;;20.25;18.50;;;;;21.28;44.54;102049.88;5060932;28;45349;-78
2022/01/11 00:08:51;;;;;;;;;20.75;20.00;;;;;21.29;44.35;102048.13;5046090;28;45543;-78
2022/01/11 00:11:16;;;;;;;;;20.50;17.75;;;;;21.29;43.91;102049.00;5027419;28;46005;-78
2022/01/11 00:13:42;;;;;;;;;21.25;19.00;;;;;21.27;44.08;102040.16;5026415;28;59533;-78
2022/01/11 00:16:09;;;;;;;;;22.00;18.25;;;;;21.28;44.07;102041.03;5043779;28;45469;-78
2022/01/11 00:18:34;;;;;;;;;20.25;19.75;;;;;21.28;43.96;102049.88;5043762;28;47384;-78
2022/01/11 00:21:00;;;;;;;;;22.00;19.75;;;;;21.26;43.71;102049.00;5043717;28;45218;-78
2022/01/11 00:25:52;;;;;;;;;18.50;17.50;;;;;21.26;43.90;102053.41;5043566;28;45419;-78
2022/01/11 00:28:18;;;;;;;;;24.25;23.00;;;;;21.25;44.08;102052.53;5043688;28;45387;-78
2022/01/11 00:30:46;;;;;;;;;18.50;18.00;;;;;21.27;44.23;102052.56;5043712;28;45373;-78
2022/01/11 00:33:16;;;;;;;;;25.00;18.75;;;;;21.27;43.86;102050.78;5043849;28;45312;-78
2022/01/11 00:35:45;;;;;;;;;21.25;19.00;;;;;21.25;44.05;102055.19;5044542;28;45676;-78
2022/01/11 00:38:15;;;;;;;;;18.50;18.25;;;;;21.25;44.07;102049.00;5060363;28;47280;-79
2022/01/11 00:40:41;;;;;;;;;23.00;19.75;;;;;21.26;43.89;102045.47;5044046;28;45456;-78
2022/01/11 00:43:06;;;;;;;;;23.75;19.50;;;;;21.25;43.91;102049.00;5043103;28;45402;-78
2022/01/11 00:45:32;;;;;;;;;18.50;17.00;;;;;21.24;43.77;102056.09;5043294;28;45296;-78
2022/01/11 00:47:57;;;;;;;;;21.75;19.50;;;;;21.23;43.69;102049.03;5026377;28;48209;-78
2022/01/11 00:50:24;;;;;;;;;28.00;20.50;;;;;21.22;43.61;102055.25;5026643;28;46682;-78
2022/01/11 00:52:52;;;;;;;;;19.00;18.25;;;;;21.20;44.05;102053.50;5043521;28;45286;-78
2022/01/11 00:55:17;;;;;;;;;20.50;18.50;;;;;21.21;44.02;102064.13;5043697;28;45172;-78
2022/01/11 00:57:43;;;;;;;;;22.25;19.75;;;;;21.21;43.78;102057.94;5042768;28;45233;-78
2022/01/11 01:00:11;;;;;;;;;22.25;19.00;;;;;21.20;43.93;102053.50;5043303;28;45384;-78
2022/01/11 01:02:37;;;;;;;;;23.25;22.00;;;;;21.18;43.78;102057.06;5043567;28;45440;-78
2022/01/11 01:05:03;;;;;;;;;24.00;21.25;;;;;21.19;43.47;102052.63;5042617;28;45475;-78
2022/01/11 01:07:29;;;;;;;;;20.75;20.25;;;;;21.18;43.22;102053.53;5060817;28;46134;-78
2022/01/11 01:10:07;;;;;;;;;27.50;19.50;;;;;21.20;43.85;102064.13;5076512;28;45474;-78
2022/01/11 01:12:33;;;;;;;;;23.00;21.75;;;;;21.20;43.63;102065.03;5059478;28;45177;-78
2022/01/11 01:14:58;;;;;;;;;21.00;18.00;;;;;21.21;43.71;102061.47;5076528;28;45247;-78
2022/01/11 01:17:24;;;;;;;;;19.50;19.50;;;;;21.20;43.55;102070.34;5059072;28;47342;-78
2022/01/11 01:19:50;;;;;;;;;19.25;18.50;;;;;21.21;43.72;102080.06;5076425;28;45243;-78
2022/01/11 01:22:15;;;;;;;;;22.00;19.25;;;;;21.19;43.95;102079.16;5059460;28;45527;-78
2022/01/11 01:24:41;;;;;;;;;19.50;17.75;;;;;21.20;44.10;102086.25;5059234;28;45536;-78
2022/01/11 01:27:06;;;;;;;;;23.75;20.50;;;;;21.21;43.65;102081.84;5075787;28;50200;-78
2022/01/11 01:29:32;;;;;;;;;24.75;22.25;;;;;21.20;43.57;102080.03;5059537;28;45445;-79
2022/01/11 01:31:58;;;;;;;;;19.00;17.50;;;;;21.21;43.63;102081.84;5059392;28;45447;-78
2022/01/11 01:34:24;;;;;;;;;22.50;19.75;;;;;21.17;43.95;102068.56;5059713;28;45689;-78
2022/01/11 01:36:50;;;;;;;;;27.00;21.50;;;;;21.21;43.70;102079.19;5025763;28;47533;-78
2022/01/11 01:39:15;;;;;;;;;21.00;18.25;;;;;21.20;43.59;102073.00;5042254;28;45264;-79
2022/01/11 01:41:43;;;;;;;;;22.00;20.25;;;;;21.18;43.73;102072.97;5042660;28;45422;-79
2022/01/11 01:44:10;;;;;;;;;24.50;19.50;;;;;21.19;43.66;102079.16;5042732;28;45558;-79
2022/01/11 01:46:36;;;;;;;;;21.75;20.75;;;;;21.18;43.73;102080.06;5042388;28;47197;-79
2022/01/11 01:49:02;;;;;;;;;21.50;19.00;;;;;21.20;43.72;102086.25;5042480;28;45396;-79
2022/01/11 01:51:28;;;;;;;;;19.25;18.50;;;;;21.19;43.88;102087.13;5025838;28;45337;-78
2022/01/11 01:53:53;;;;;;;;;21.50;21.50;;;;;21.19;43.57;102081.81;5025764;28;45777;-79
2022/01/11 01:56:20;;;;;;;;;22.00;22.00;;;;;21.18;43.52;102090.69;5041806;28;52810;-78
2022/01/11 01:58:45;;;;;;;;;22.75;21.25;;;;;21.17;43.64;102096.91;5025586;28;45616;-78
2022/01/11 02:01:13;;;;;;;;;22.00;19.00;;;;;21.18;43.56;102096.88;5025445;28;45628;-78
2022/01/11 02:03:39;;;;;;;;;16.00;15.75;;;;;21.17;43.26;102095.13;5059270;28;45691;-78
2022/01/11 02:06:16;;;;;;;;;18.50;16.75;;;;;21.17;43.67;102092.47;5042105;28;47699;-78
2022/01/11 02:08:44;;;;;;;;;20.00;19.25;;;;;21.17;43.30;102094.25;5042317;28;45437;-78
2022/01/11 02:11:09;;;;;;;;;16.50;15.50;;;;;21.17;43.56;102107.53;5042617;28;45533;-78
2022/01/11 02:13:35;;;;;;;;;20.25;18.75;;;;;21.17;43.41;102115.50;5041837;28;45513;-78
2022/01/11 02:16:03;;;;;;;;;20.50;18.75;;;;;21.16;43.27;102105.78;5041312;28;45456;-78
2022/01/11 02:18:28;;;;;;;;;20.75;19.50;;;;;21.16;43.14;102108.44;5042441;28;45244;-78
2022/01/11 02:20:56;;;;;;;;;18.75;17.75;;;;;21.16;42.96;102111.09;5025484;28;45781;-78
2022/01/11 02:23:22;;;;;;;;;25.25;20.25;;;;;21.15;43.07;102104.91;5042211;28;45494;-78
2022/01/11 02:25:47;;;;;;;;;19.50;18.50;;;;;21.15;42.79;102110.22;5025074;28;47816;-78
2022/01/11 02:28:15;;;;;;;;;22.25;19.00;;;;;21.14;43.57;102105.81;5040944;28;63913;-78
2022/01/11 02:30:40;;;;;;;;;20.00;16.50;;;;;21.13;43.09;102109.34;5058696;28;45235;-79
2022/01/11 02:33:13;;;;;;;;;21.50;17.75;;;;;21.15;43.15;102111.97;5041709;28;45542;-78
2022/01/11 02:35:38;;;;;;;;;18.75;16.75;;;;;21.14;43.37;102108.44;5043162;28;45684;-77
2022/01/11 02:38:04;;;;;;;;;16.50;16.50;;;;;21.15;43.31;102111.97;5041155;28;51307;-78
2022/01/11 02:40:29;;;;;;;;;20.50;18.00;;;;;21.14;43.33;102111.09;5042061;28;45310;-78
2022/01/11 02:42:55;;;;;;;;;23.00;18.50;;;;;21.12;43.04;102114.69;5058170;28;45342;-78
2022/01/11 02:45:21;;;;;;;;;19.00;17.50;;;;;21.13;42.97;102109.34;5058211;28;47093;-78
2022/01/11 02:47:47;;;;;;;;;20.50;17.75;;;;;21.13;43.16;102119.09;5025157;28;45671;-78
2022/01/11 02:50:13;;;;;;;;;19.25;17.25;;;;;21.13;43.26;102119.97;5041969;28;45212;-77
2022/01/11 02:52:38;;;;;;;;;19.25;17.75;;;;;21.12;43.03;102123.53;5024778;28;45949;-78
2022/01/11 02:55:07;;;;;;;;;20.25;17.25;;;;;21.10;43.41;102117.34;5024786;28;46685;-78
2022/01/11 02:57:33;;;;;;;;;21.00;17.75;;;;;21.10;43.00;102113.81;5058006;28;45449;-78
2022/01/11 02:59:58;;;;;;;;;20.50;17.00;;;;;21.10;43.24;102100.53;5040916;28;53540;-78
2022/01/11 03:02:24;;;;;;;;;22.00;21.00;;;;;21.11;43.25;102102.28;5040839;28;58499;-78
2022/01/11 03:04:49;;;;;;;;;24.75;21.25;;;;;21.10;42.90;102119.13;5040725;28;63672;-78
2022/01/11 03:07:19;;;;;;;;;20.50;19.25;;;;;21.10;43.11;102119.13;5041091;28;49956;-78
2022/01/11 03:10:00;;;;;;;;;22.50;19.25;;;;;21.10;42.72;102122.66;5041513;28;45294;-78
2022/01/11 03:12:26;;;;;;;;;20.25;16.25;;;;;21.10;43.24;102133.25;5028793;28;45222;-78
2022/01/11 03:14:51;;;;;;;;;20.50;19.00;;;;;21.11;42.75;102118.22;5040634;28;62838;-78
2022/01/11 03:17:17;;;;;;;;;23.25;20.00;;;;;21.11;42.64;102124.44;5041464;28;45271;-77
2022/01/11 03:19:42;;;;;;;;;17.25;17.25;;;;;21.10;43.13;102127.97;5041241;28;46017;-77
2022/01/11 03:22:08;;;;;;;;;17.50;16.75;;;;;21.09;42.53;102120.91;5024405;28;46016;-78
2022/01/11 03:24:33;;;;;;;;;20.50;18.00;;;;;21.08;42.96;102129.75;5058967;28;45355;-77
2022/01/11 03:26:58;;;;;;;;;20.50;19.25;;;;;21.11;42.66;102134.13;5057980;28;45437;-77
2022/01/11 03:29:24;;;;;;;;;18.75;17.75;;;;;21.08;42.79;102128.88;5062448;28;49720;-78
2022/01/11 03:31:49;;;;;;;;;20.50;16.50;;;;;21.10;42.39;102135.03;5061307;28;45267;-77
2022/01/11 03:34:19;;;;;;;;;19.75;18.00;;;;;21.09;42.72;102142.13;5060803;28;58031;-77
2022/01/11 03:36:45;;;;;;;;;26.50;20.00;;;;;21.07;42.81;102141.28;5062485;28;45442;-77
2022/01/11 03:39:10;;;;;;;;;15.25;15.25;;;;;21.08;42.59;102155.44;5061259;28;45524;-77
2022/01/11 03:41:35;;;;;;;;;18.25;16.75;;;;;21.08;42.18;102147.47;5060449;28;62589;-78
2022/01/11 03:44:01;;;;;;;;;21.25;17.00;;;;;21.05;42.72;102134.25;5060923;28;45263;-78
2022/01/11 03:46:26;;;;;;;;;16.75;15.50;;;;;21.05;42.47;102135.13;5060457;28;55209;-77
2022/01/11 03:48:51;;;;;;;;;19.50;18.75;;;;;21.03;42.44;102134.25;5044040;28;48566;-78
2022/01/11 03:51:17;;;;;;;;;18.75;17.00;;;;;21.04;42.54;102137.78;5043599;28;57368;-77
2022/01/11 03:54:02;;;;;;;;;21.75;17.75;;;;;21.03;42.64;102146.66;5043823;28;48719;-78
2022/01/11 03:56:28;;;;;;;;;15.25;13.50;;;;;21.03;42.87;102144.00;5032881;28;45210;-77
2022/01/11 03:58:53;;;;;;;;;20.00;16.50;;;;;21.00;42.38;102150.22;5027440;28;45273;-78
2022/01/11 04:01:19;;;;;;;;;17.75;16.50;;;;;21.00;42.81;102162.59;5043757;28;45509;-78
2022/01/11 04:03:46;;;;;;;;;10.75;10.25;;;;;21.01;42.87;102159.03;5094752;27;45434;-78
2022/01/11 04:06:11;;;;;;;;;15.75;14.75;;;;;21.00;42.41;102154.63;5063927;28;45371;-77
2022/01/11 04:08:36;;;;;;;;;16.75;15.00;;;;;20.98;42.68;102137.84;5094668;27;45453;-78
2022/01/11 04:11:02;;;;;;;;;16.50;15.75;;;;;21.01;42.70;102140.47;5061735;28;45232;-78
2022/01/11 04:13:27;;;;;;;;;20.75;17.25;;;;;20.99;42.84;102144.91;5043525;28;47218;-77
2022/01/11 04:15:53;;;;;;;;;20.00;16.75;;;;;20.99;42.73;102142.25;5043089;28;59568;-78
2022/01/11 04:18:18;;;;;;;;;16.50;14.75;;;;;20.97;42.38;102142.28;5043865;28;45797;-78
2022/01/11 04:20:43;;;;;;;;;17.00;15.00;;;;;20.98;42.71;102143.16;5043768;28;45454;-78
2022/01/11 04:23:12;;;;;;;;;18.50;16.00;;;;;20.98;42.65;102140.50;5043618;28;47486;-78
2022/01/11 04:25:38;;;;;;;;;18.75;16.75;;;;;20.99;42.54;102140.47;5044204;28;45466;-77
2022/01/11 04:28:03;;;;;;;;;18.00;16.25;;;;;20.97;42.69;102139.63;5043656;28;45344;-77
2022/01/11 04:30:29;;;;;;;;;17.75;15.75;;;;;20.95;42.62;102144.09;5043626;28;45335;-77
2022/01/11 04:32:54;;;;;;;;;16.00;15.00;;;;;20.94;42.26;102147.63;5060328;28;47958;-78
2022/01/11 04:35:20;;;;;;;;;16.25;14.50;;;;;20.97;42.24;102158.22;5059954;28;61270;-77
2022/01/11 04:37:45;;;;;;;;;19.50;13.25;;;;;20.98;42.25;102159.09;5076713;28;55233;-78
2022/01/11 04:40:11;;;;;;;;;14.00;14.00;;;;;20.95;42.29;102151.16;5042457;28;45513;-78
2022/01/11 04:42:37;;;;;;;;;16.75;13.00;;;;;20.96;42.27;102155.59;5026473;28;46829;-78
2022/01/11 04:45:02;;;;;;;;;15.50;14.25;;;;;20.96;42.47;102155.59;5042959;28;60250;-78
2022/01/11 04:47:28;;;;;;;;;17.00;12.25;;;;;20.97;42.32;102154.69;5043520;28;45366;-78
2022/01/11 04:49:53;;;;;;;;;14.25;14.25;;;;;20.95;42.24;102146.75;5077164;28;45788;-78
2022/01/11 04:52:19;;;;;;;;;17.50;15.75;;;;;20.95;42.23;102153.84;5076326;28;68123;-78
2022/01/11 04:54:44;;;;;;;;;16.00;13.50;;;;;20.94;42.52;102152.03;5059718;28;45464;-78
2022/01/11 04:57:09;;;;;;;;;13.25;13.25;;;;;20.93;42.55;102155.59;5077105;28;45332;-78
2022/01/11 04:59:35;;;;;;;;;17.75;13.75;;;;;20.93;42.39;102166.22;5076667;28;48270;-78
2022/01/11 05:02:00;;;;;;;;;15.50;10.75;;;;;20.92;42.07;102170.63;5022855;28;56192;-77
2022/01/11 05:04:29;;;;;;;;;16.00;11.75;;;;;20.93;42.27;102168.88;5025792;28;56326;-78
2022/01/11 05:06:55;;;;;;;;;13.75;12.75;;;;;20.93;42.62;102172.41;5026632;28;45325;-77
2022/01/11 05:09:21;;;;;;;;;13.25;11.00;;;;;20.96;42.21;102182.13;5042934;28;45488;-78
2022/01/11 05:11:46;;;;;;;;;14.75;12.75;;;;;20.94;42.25;102184.81;5042849;28;45491;-78
2022/01/11 05:14:12;;;;;;;;;15.25;11.75;;;;;20.95;42.47;102181.25;5042323;28;56158;-78
2022/01/11 05:16:37;;;;;;;;;10.75;9.00;;;;;20.96;42.44;102177.69;5043305;28;45383;-78
2022/01/11 05:19:02;;;;;;;;;14.00;10.50;;;;;20.95;42.60;102175.94;5058779;28;63651;-78
2022/01/11 05:21:28;;;;;;;;;11.75;10.75;;;;;20.96;42.53;102176.81;5059717;28;46319;-78
2022/01/11 05:23:53;;;;;;;;;11.50;11.50;;;;;20.97;42.52;102170.59;5025667;28;51758;-78
2022/01/11 05:26:19;;;;;;;;;13.00;11.50;;;;;20.98;42.20;102169.72;5059739;28;45270;-78
2022/01/11 05:28:44;;;;;;;;;18.00;11.75;;;;;20.98;42.39;102175.00;5041790;28;60355;-78
2022/01/11 05:31:09;;;;;;;;;11.75;9.50;;;;;21.00;42.17;102178.53;5026153;28;46932;-78
2022/01/11 05:33:35;;;;;;;;;12.50;11.50;;;;;21.00;42.37;102184.72;5042265;28;49260;-78
2022/01/11 05:36:00;;;;;;;;;14.00;12.75;;;;;21.01;42.05;102177.63;5059185;28;49645;-77
2022/01/11 05:38:26;;;;;;;;;12.00;10.75;;;;;21.02;42.17;102187.34;5059127;28;45427;-77
2022/01/11 05:40:51;;;;;;;;;11.00;10.00;;;;;21.03;42.20;102189.13;5042620;28;47250;-77
2022/01/11 05:43:17;;;;;;;;;10.75;9.75;;;;;21.03;42.58;102190.00;5059079;28;45226;-77
2022/01/11 05:45:42;;;;;;;;;12.50;10.50;;;;;21.02;42.59;102182.91;5042604;28;45332;-77
2022/01/11 05:48:08;;;;;;;;;12.50;9.75;;;;;21.03;42.18;102190.00;5042499;28;45330;-77
2022/01/11 05:50:34;;;;;;;;;12.25;11.00;;;;;21.04;42.38;102197.06;5058604;28;59913;-77
2022/01/11 05:52:59;;;;;;;;;11.75;11.00;;;;;21.06;41.99;102205.00;5042600;28;45297;-78
2022/01/11 05:55:25;;;;;;;;;13.75;13.50;;;;;21.05;42.11;102198.81;5042319;28;45302;-77
2022/01/11 05:57:50;;;;;;;;;12.00;11.00;;;;;21.06;42.14;102197.03;5042111;28;45562;-78
2022/01/11 06:00:18;;;;;;;;;14.00;12.00;;;;;21.06;41.95;102199.69;5042376;28;46114;-77
2022/01/11 06:02:46;;;;;;;;;13.00;12.00;;;;;21.07;42.51;102197.03;5025741;28;45965;-78
2022/01/11 06:05:12;;;;;;;;;13.50;11.25;;;;;21.09;43.10;102204.97;5045190;28;45327;-80
2022/01/11 06:07:39;;;;;;;;;13.00;12.50;;;;;21.13;45.23;102217.34;5025339;28;45980;-76
2022/01/11 06:10:05;;;;;;;;;16.25;12.25;;;;;21.18;45.30;102208.41;5042129;28;46498;-79
2022/01/11 06:12:31;;;;;;;;;18.00;16.00;;;;;21.28;44.96;102222.47;5045391;28;45648;-82
2022/01/11 06:14:56;;;;;;;;;14.25;13.50;;;;;21.44;44.27;102225.84;5058939;28;45387;-76
2022/01/11 06:17:21;;;;;;;;;13.75;12.00;;;;;21.58;45.06;102237.19;5025102;28;49603;-76
2022/01/11 06:19:47;;;;;;;;;19.75;14.75;;;;;21.68;44.43;102243.25;5042032;28;45499;-79
2022/01/11 06:22:12;;;;;;;;;16.25;13.25;;;;;21.76;44.72;102235.19;5041822;28;45804;-79
2022/01/11 06:24:38;;;;;;;;;16.75;15.50;;;;;21.84;44.62;102244.81;5041729;28;52347;-76
2022/01/11 06:27:03;;;;;;;;;16.25;13.00;;;;;21.88;44.46;102245.63;5025391;28;45272;-79
2022/01/11 06:29:29;;;;;;;;;16.00;14.50;;;;;21.89;44.03;102245.66;5058523;28;48231;-77
2022/01/11 06:31:54;;;;;;;;;18.25;16.75;;;;;21.88;44.03;102243.84;5041679;28;45498;-76
2022/01/11 06:34:19;;;;;;;;;18.00;14.25;;;;;21.88;43.56;102249.19;5041519;28;51704;-77
2022/01/11 06:36:45;;;;;;;;;15.75;14.50;;;;;21.86;43.82;102247.44;5041674;28;45353;-76
2022/01/11 06:39:10;;;;;;;;;16.75;14.75;;;;;21.83;43.30;102240.41;5057917;28;56230;-76
2022/01/11 06:41:36;;;;;;;;;17.25;15.25;;;;;21.82;43.66;102240.44;5058229;28;54385;-76
2022/01/11 06:44:01;;;;;;;;;16.00;13.00;;;;;21.77;43.41;102237.81;5041661;28;50638;-76
2022/01/11 06:46:28;;;;;;;;;17.25;16.25;;;;;21.76;42.93;102241.38;5041356;28;47491;-77
2022/01/11 06:48:54;;;;;;;;;16.00;14.50;;;;;21.75;43.34;102247.59;5041778;28;47032;-76
2022/01/11 06:51:19;;;;;;;;;14.50;12.50;;;;;21.75;42.96;102255.56;5041197;28;45631;-75
2022/01/11 06:53:45;;;;;;;;;22.00;15.25;;;;;21.75;43.24;102260.88;5058143;28;45157;-76
2022/01/11 06:56:10;;;;;;;;;16.75;15.00;;;;;21.73;43.06;102250.28;5041162;28;45487;-76
2022/01/11 06:58:37;;;;;;;;;17.00;11.50;;;;;21.73;43.47;102252.06;5057914;28;47042;-75
2022/01/11 07:01:03;;;;;;;;;16.00;14.25;;;;;21.68;43.39;102249.44;5024828;28;45696;-76
2022/01/11 07:03:29;;;;;;;;;15.00;14.00;;;;;21.70;43.56;102249.44;5043795;28;45332;-75
2022/01/11 07:05:54;;;;;;;;;18.00;14.50;;;;;21.69;43.06;102240.56;5044613;28;45524;-79
2022/01/11 07:08:19;;;;;;;;;18.50;14.75;;;;;21.68;43.07;102254.75;5044147;28;68936;-76
2022/01/11 07:10:45;;;;;;;;;19.75;15.00;;;;;21.63;42.88;102255.72;5061228;28;45438;-76
2022/01/11 07:13:10;;;;;;;;;18.00;14.00;;;;;21.62;43.25;102251.28;5061412;28;45300;-76
2022/01/11 07:15:36;;;;;;;;;17.00;12.75;;;;;21.64;43.49;102269.00;5044506;28;49856;-76
2022/01/11 07:18:07;;;;;;;;;17.00;15.50;;;;;21.60;43.28;102267.25;5044079;28;61555;-76
2022/01/11 07:20:33;;;;;;;;;14.00;12.00;;;;;21.60;43.33;102277.00;5046377;28;45311;-76
2022/01/11 07:22:59;;;;;;;;;16.50;15.25;;;;;21.58;43.25;102276.16;5044619;28;45356;-76
2022/01/11 07:25:25;;;;;;;;;19.00;17.00;;;;;21.56;43.16;102270.00;5044097;28;45614;-77
2022/01/11 07:27:50;;;;;;;;;22.75;18.00;;;;;21.54;43.07;102266.44;5061222;28;45384;-76
2022/01/11 07:30:16;;;;;;;;;21.00;16.75;;;;;21.52;42.61;102268.25;5061083;28;45276;-77
2022/01/11 07:32:41;;;;;;;;;15.00;14.50;;;;;21.48;42.77;102267.41;5061370;28;45241;-76
2022/01/11 07:35:07;;;;;;;;;20.50;16.25;;;;;21.49;42.23;102284.25;5027606;28;45509;-77
2022/01/11 07:37:32;;;;;;;;;15.25;14.25;;;;;21.47;42.33;102291.34;5044069;28;47525;-77
2022/01/11 07:39:58;;;;;;;;;17.75;13.00;;;;;21.47;42.24;102312.59;5043357;28;48537;-76
2022/01/11 07:42:23;;;;;;;;;16.50;15.25;;;;;21.47;42.31;102307.28;5060888;28;45263;-76
2022/01/11 07:44:51;;;;;;;;;20.00;18.25;;;;;21.43;42.37;102320.59;5060260;28;57087;-76
2022/01/11 07:47:18;;;;;;;;;20.75;18.00;;;;;21.47;42.40;102317.91;5060720;28;46074;-76
2022/01/11 07:49:43;;;;;;;;;20.00;18.75;;;;;21.45;42.00;102317.91;5060357;28;45370;-76
2022/01/11 07:52:09;;;;;;;;;19.50;15.50;;;;;21.42;42.23;102308.19;5060840;28;45272;-76
2022/01/11 07:54:34;;;;;;;;;15.75;14.25;;;;;21.43;41.83;102306.44;5043654;28;45387;-76
2022/01/11 07:56:59;;;;;;;;;20.25;17.25;;;;;21.44;41.90;102316.16;5043443;28;47005;-76
2022/01/11 07:59:25;;;;;;;;;16.00;16.00;;;;;21.41;41.53;102317.06;5094213;27;48849;-76
2022/01/11 08:01:50;;;;;;;;;14.50;12.50;;;;;21.42;42.02;102321.47;5023783;28;45498;-76
2022/01/11 08:04:16;;;;;;;;;16.75;15.50;;;;;21.42;41.48;102313.50;5043312;28;45257;-76
2022/01/11 08:06:41;;;;;;;;;20.25;16.50;;;;;21.44;41.89;102324.13;5042891;28;46390;-76
2022/01/11 08:09:10;;;;;;;;;16.25;14.25;;;;;21.36;41.73;102310.03;5061817;28;45347;-75
2022/01/11 08:11:35;;;;;;;;;20.75;16.25;;;;;21.36;41.55;102299.41;5061510;28;45295;-74
2022/01/11 08:14:00;;;;;;;;;17.00;16.25;;;;;21.39;41.53;102316.22;5060315;28;45279;-75
2022/01/11 08:16:26;;;;;;;;;15.50;14.25;;;;;21.39;41.68;102323.31;5059051;28;57466;-75
2022/01/11 08:18:52;;;;;;;;;19.50;16.75;;;;;21.38;41.55;102325.09;5026768;28;45843;-77
2022/01/11 08:21:17;;;;;;;;;18.00;16.50;;;;;21.38;41.63;102333.06;5043610;28;45511;-76
2022/01/11 08:23:42;;;;;;;;;16.25;12.25;;;;;21.37;41.71;102333.94;5059623;28;58934;-76
2022/01/11 08:26:08;;;;;;;;;21.00;17.50;;;;;21.37;41.50;102347.22;5042755;28;46885;-75
2022/01/11 08:28:33;;;;;;;;;18.00;16.50;;;;;21.37;41.57;102349.88;5059672;28;45418;-74
2022/01/11 08:30:59;;;;;;;;;22.75;17.75;;;;;21.36;41.32;102358.72;5043395;28;45439;-74
2022/01/11 08:33:24;;;;;;;;;17.25;14.50;;;;;21.36;41.61;102355.19;5026720;28;45393;-75
2022/01/11 08:35:51;;;;;;;;;21.50;16.00;;;;;21.35;41.34;102364.94;5059779;28;49533;-75
2022/01/11 08:38:16;;;;;;;;;19.75;18.25;;;;;21.36;41.42;102361.38;5042718;28;45440;-75
2022/01/11 08:40:42;;;;;;;;;19.50;15.50;;;;;21.36;42.34;102361.38;5047049;28;56066;-78
2022/01/11 08:43:07;;;;;;;;;18.00;18.00;;;;;21.40;41.98;102359.59;5042712;28;45220;-75
2022/01/11 08:45:36;;;;;;;;;18.50;16.25;;;;;21.42;43.39;102361.34;5042387;28;47415;-75
2022/01/11 08:48:01;;;;;;;;;18.50;16.25;;;;;21.44;43.11;102362.19;5042598;28;45684;-75
2022/01/11 08:50:26;;;;;;;;;17.75;16.75;;;;;21.47;42.94;102352.44;5043174;28;45362;-75
2022/01/11 08:52:52;;;;;;;;;18.50;16.25;;;;;21.50;42.77;102355.06;5042681;28;45544;-75
2022/01/11 08:55:17;;;;;;;;;18.50;15.25;;;;;21.49;42.52;102354.19;5042726;28;47236;-79
2022/01/11 08:57:44;;;;;;;;;17.50;15.25;;;;;21.51;42.66;102355.03;5058934;28;45718;-77
2022/01/11 09:00:16;;;;;;;;;17.50;16.25;;;;;21.50;42.36;102353.28;5059829;28;45417;-80
2022/01/11 09:02:45;;;;;;;;;15.00;14.25;;;;;21.53;42.92;102357.69;5043793;28;45454;-81
2022/01/11 09:05:11;;;;;;;;;19.25;15.00;;;;;21.53;43.28;102360.34;5043576;28;47258;-80
2022/01/11 09:07:36;;;;;;;;;21.00;14.25;;;;;21.55;42.85;102363.88;5059056;28;45441;-76
2022/01/11 09:10:02;;;;;;;;;12.00;11.00;;;;;21.52;42.64;102361.22;5043150;28;45340;-78
2022/01/11 09:12:28;;;;;;;;;22.50;17.25;;;;;21.54;42.84;102362.09;5042749;28;45548;-78
2022/01/11 09:14:54;;;;;;;;;12.00;10.75;;;;;21.51;42.60;102362.13;5060058;28;46798;-78
2022/01/11 09:17:19;;;;;;;;;17.50;14.25;;;;;21.50;42.77;102369.22;5060417;28;45454;-77
2022/01/11 09:19:45;;;;;;;;;20.25;16.00;;;;;21.48;43.11;102368.38;5060727;28;45346;-77
2022/01/11 09:22:10;;;;;;;;;17.50;14.25;;;;;21.49;43.03;102372.78;5042634;28;46113;-77
2022/01/11 09:24:36;;;;;;;;;16.50;14.75;;;;;21.54;43.28;102383.34;5059548;28;45435;-76
2022/01/11 09:27:04;;;;;;;;;17.25;14.75;;;;;21.52;43.38;102369.19;5059088;28;45446;-76
2022/01/11 09:29:31;;;;;;;;;17.00;13.75;;;;;21.52;42.90;102363.88;5059805;28;45395;-77
2022/01/11 09:31:57;;;;;;;;;17.50;16.00;;;;;21.57;43.36;102378.03;5058829;28;45557;-77
2022/01/11 09:34:23;;;;;;;;;16.25;13.75;;;;;21.55;43.14;102379.81;5042555;28;47214;-77
2022/01/11 09:36:49;;;;;;;;;16.00;13.50;;;;;21.54;43.56;102386.88;5044144;28;45252;-76
2022/01/11 09:39:15;;;;;;;;;15.50;14.25;;;;;21.54;43.23;102388.66;5042586;28;45272;-77
2022/01/11 09:41:40;;;;;;;;;14.50;14.50;;;;;21.54;43.03;102401.94;5042223;28;45589;-78
2022/01/11 09:44:07;;;;;;;;;17.50;16.25;;;;;21.55;43.13;102401.97;5059120;28;48401;-78
2022/01/11 09:46:35;;;;;;;;;15.75;14.75;;;;;21.54;43.12;102399.28;5042415;28;45849;-79
2022/01/11 09:49:01;;;;;;;;;20.25;16.25;;;;;21.53;42.72;102398.41;5042295;28;45308;-80
2022/01/11 09:51:26;;;;;;;;;13.25;13.25;;;;;21.53;43.00;102403.72;5058855;28;45286;-79
2022/01/11 09:53:52;;;;;;;;;19.00;18.75;;;;;21.54;42.51;102404.59;5042256;28;46548;-78
2022/01/11 09:56:18;;;;;;;;;18.75;16.75;;;;;21.53;42.63;102402.84;5042233;28;45462;-78
2022/01/11 09:58:47;;;;;;;;;16.00;14.50;;;;;21.53;43.01;102409.03;5042211;28;45273;-79
2022/01/11 10:01:12;;;;;;;;;18.50;16.25;;;;;21.53;42.91;102413.47;5041496;28;45354;-78
2022/01/11 10:04:06;;;;;;;;;20.75;17.75;;;;;21.54;42.79;102410.78;5058715;28;46319;-78
2022/01/11 10:06:33;;;;;;;;;19.25;18.25;;;;;21.54;42.89;102416.09;5041950;28;45765;-78
2022/01/11 10:09:10;;;;;;;;;19.75;17.75;;;;;21.55;43.10;102414.34;5058843;28;45681;-78
2022/01/11 10:11:40;;;;;;;;;18.75;17.00;;;;;21.53;43.35;102413.47;5075137;28;45590;-76
2022/01/11 10:14:32;;;;;;;;;18.25;16.25;;;;;21.55;43.14;102417.91;5058422;28;45502;-77
2022/01/11 10:17:08;;;;;;;;;17.50;16.00;;;;;21.55;43.17;102415.25;5059845;28;45410;-78
2022/01/11 10:19:34;;;;;;;;;17.75;15.50;;;;;21.55;43.15;102411.69;5058294;28;45258;-78
2022/01/11 10:22:05;;;;;;;;;19.75;17.75;;;;;21.56;42.98;102419.66;5059400;28;45181;-77
2022/01/11 10:24:42;;;;;;;;;20.50;15.00;;;;;21.55;42.92;102435.63;5096388;27;47364;-78
2022/01/11 10:27:31;;;;;;;;;17.25;14.75;;;;;21.55;42.99;102433.84;5074873;28;45401;-78
2022/01/11 10:30:01;;;;;;;;;18.25;16.50;;;;;21.54;43.12;102421.41;5059453;28;45397;-78
2022/01/11 10:32:45;;;;;;;;;20.00;17.50;;;;;21.55;43.21;102427.66;5041744;28;45257;-77
2022/01/11 10:35:18;;;;;;;;;18.50;15.25;;;;;21.54;42.98;102432.03;5059466;28;45800;-78
2022/01/11 10:37:46;;;;;;;;;17.75;15.75;;;;;21.53;43.14;102426.75;5043055;28;45343;-79
2022/01/11 10:40:22;;;;;;;;;22.00;19.75;;;;;21.54;42.72;102431.16;5045068;28;45231;-76
2022/01/11 10:42:49;;;;;;;;;18.25;16.00;;;;;21.55;43.00;102432.97;5045837;28;45351;-76
2022/01/11 10:45:17;;;;;;;;;14.75;14.75;;;;;21.54;42.84;102432.03;5061893;28;45414;-76
2022/01/11 10:47:46;;;;;;;;;21.25;17.50;;;;;21.55;42.67;102438.28;5078499;28;45521;-76
2022/01/11 10:50:27;;;;;;;;;20.50;18.50;;;;;21.54;42.54;102434.69;5045500;28;45266;-76
2022/01/11 10:52:52;;;;;;;;;19.00;15.50;;;;;21.53;42.72;102432.94;5061412;28;45957;-76
2022/01/11 10:55:19;;;;;;;;;19.25;16.25;;;;;21.54;42.78;102437.34;5061490;28;46432;-76
2022/01/11 10:57:49;;;;;;;;;18.75;17.00;;;;;21.53;42.57;102435.59;5061444;28;45524;-76
2022/01/11 11:00:24;;;;;;;;;22.75;17.25;;;;;21.53;42.77;102435.59;5026128;28;45392;-76
2022/01/11 11:02:57;;;;;;;;;15.00;15.00;;;;;21.53;42.88;102432.06;5076471;28;45292;-76
2022/01/11 11:05:24;;;;;;;;;17.25;16.00;;;;;21.54;42.53;102428.50;5060729;28;47985;-76
2022/01/11 11:08:10;;;;;;;;;21.50;18.50;;;;;21.54;42.89;102420.53;5078363;28;45626;-76
2022/01/11 11:10:40;;;;;;;;;19.25;18.25;;;;;21.54;42.93;102436.47;5078272;28;45482;-76
2022/01/11 11:13:06;;;;;;;;;20.25;16.50;;;;;21.54;42.91;102436.47;5077290;28;45452;-76